createdAt,value
2023-04-17T00:01:55.736Z,7.93
2023-04-17T00:04:23.443Z,5.38
2023-04-17T00:06:53.882Z,5.00
2023-04-17T00:09:21.400Z,4.10
2023-04-17T00:11:48.754Z,5.28
2023-04-17T00:14:16.153Z,4.47
2023-04-17T00:16:43.570Z,3.60
2023-04-17T00:19:11.251Z,5.45
2023-04-17T00:21:38.920Z,5.20
2023-04-17T00:24:06.598Z,5.50
2023-04-17T00:26:34.629Z,5.28
2023-04-17T00:29:02.266Z,5.03
2023-04-17T00:31:31.510Z,4.63
2023-04-17T00:34:01.252Z,5.78
2023-04-17T00:36:31.832Z,4.68
2023-04-17T00:38:59.551Z,5.82
2023-04-17T00:41:27.034Z,5.10
2023-04-17T00:43:54.537Z,8.15
2023-04-17T00:46:22.149Z,5.47
2023-04-17T00:48:50.131Z,5.30
2023-04-17T00:51:17.517Z,7.03
2023-04-17T00:53:45.883Z,5.65
2023-04-17T00:56:13.721Z,4.82
2023-04-17T00:58:41.349Z,5.22
2023-04-17T01:01:08.912Z,4.85
2023-04-17T01:03:36.557Z,5.00
2023-04-17T01:06:04.342Z,5.80
2023-04-17T01:08:43.152Z,5.55
2023-04-17T01:11:11.263Z,6.60
2023-04-17T01:13:49.720Z,4.45
2023-04-17T01:16:19.149Z,4.50
2023-04-17T01:18:50.214Z,5.22
2023-04-17T01:21:17.924Z,5.25
2023-04-17T01:23:52.217Z,4.63
2023-04-17T01:26:25.750Z,4.65
2023-04-17T01:28:56.273Z,4.55
2023-04-17T01:31:25.173Z,5.35
2023-04-17T01:33:53.411Z,6.53
2023-04-17T01:36:20.828Z,5.18
2023-04-17T01:38:48.237Z,8.30
2023-04-17T01:41:15.800Z,5.63
2023-04-17T01:43:45.421Z,5.75
2023-04-17T01:46:13.073Z,6.95
2023-04-17T01:48:40.776Z,6.15
2023-04-17T01:51:08.304Z,7.70
2023-04-17T01:53:38.042Z,6.60
2023-04-17T01:56:05.775Z,6.40
2023-04-17T01:58:33.358Z,5.32
2023-04-17T02:01:00.852Z,6.28
2023-04-17T02:03:28.719Z,5.85
2023-04-17T02:05:56.322Z,4.63
2023-04-17T02:08:24.006Z,7.32
2023-04-17T02:10:51.907Z,6.13
2023-04-17T02:13:19.360Z,5.57
2023-04-17T02:15:46.857Z,6.00
2023-04-17T02:18:14.365Z,7.57
2023-04-17T02:20:41.768Z,6.65
2023-04-17T02:23:09.199Z,9.52
2023-04-17T02:25:36.627Z,8.82
2023-04-17T02:28:04.838Z,4.90
2023-04-17T02:30:35.129Z,7.97
2023-04-17T02:33:02.646Z,6.38
2023-04-17T02:35:32.374Z,5.18
2023-04-17T02:37:59.925Z,6.18
2023-04-17T02:40:28.113Z,5.93
2023-04-17T02:43:01.519Z,7.45
2023-04-17T02:45:30.037Z,8.65
2023-04-17T02:47:57.536Z,5.93
2023-04-17T02:50:25.078Z,7.65
2023-04-17T02:53:04.499Z,5.65
2023-04-17T02:55:31.953Z,6.50
2023-04-17T02:57:59.368Z,8.85
2023-04-17T03:00:27.335Z,5.47
2023-04-17T03:02:55.085Z,4.32
2023-04-17T03:05:23.486Z,4.75
2023-04-17T03:07:52.631Z,5.93
2023-04-17T03:10:20.189Z,7.70
2023-04-17T03:12:47.590Z,5.72
2023-04-17T03:15:14.999Z,6.43
2023-04-17T03:17:43.675Z,7.68
2023-04-17T03:20:11.391Z,5.68
2023-04-17T03:22:38.845Z,7.57
2023-04-17T03:25:07.558Z,5.40
2023-04-17T03:27:42.983Z,7.47
2023-04-17T03:30:10.694Z,7.65
2023-04-17T03:32:38.335Z,9.10
2023-04-17T03:35:06.769Z,6.97
2023-04-17T03:37:34.809Z,10.27
2023-04-17T03:40:04.099Z,7.07
2023-04-17T03:42:31.581Z,5.65
2023-04-17T03:44:58.987Z,5.50
2023-04-17T03:47:28.058Z,8.70
2023-04-17T03:49:56.767Z,5.18
2023-04-17T03:52:25.166Z,6.25
2023-04-17T03:54:56.881Z,4.10
2023-04-17T03:57:26.573Z,5.45
2023-04-17T03:59:54.302Z,5.40
2023-04-17T04:02:23.052Z,7.30
2023-04-17T04:04:51.372Z,6.35
2023-04-17T04:07:19.502Z,8.75
2023-04-17T04:09:47.311Z,9.18
2023-04-17T04:12:15.023Z,8.75
2023-04-17T04:14:45.300Z,7.20
2023-04-17T04:17:14.846Z,6.05
2023-04-17T04:19:43.553Z,6.45
2023-04-17T04:22:13.621Z,5.25
2023-04-17T04:24:53.750Z,8.75
2023-04-17T04:27:27.705Z,5.93
2023-04-17T04:29:58.868Z,8.40
2023-04-17T04:32:28.437Z,6.68
2023-04-17T04:34:58.423Z,10.10
2023-04-17T04:37:30.159Z,6.22
2023-04-17T04:40:10.206Z,3.80
2023-04-17T04:42:42.092Z,5.50
2023-04-17T04:45:18.846Z,5.93
2023-04-17T04:47:46.804Z,6.75
2023-04-17T04:50:14.264Z,3.47
2023-04-17T04:52:41.727Z,6.10
2023-04-17T04:55:21.861Z,6.38
2023-04-17T04:57:54.344Z,5.55
2023-04-17T05:00:23.804Z,7.00
2023-04-17T05:02:54.961Z,5.18
2023-04-17T05:05:25.590Z,5.30
2023-04-17T05:07:55.074Z,5.35
2023-04-17T05:10:25.765Z,6.33
2023-04-17T05:12:58.808Z,7.40
2023-04-17T05:15:27.134Z,8.38
2023-04-17T05:17:54.893Z,15.57
2023-04-17T05:20:23.446Z,6.32
2023-04-17T05:22:55.767Z,5.72
2023-04-17T05:25:23.410Z,6.45
2023-04-17T05:27:51.812Z,5.55
2023-04-17T05:30:19.272Z,7.25
2023-04-17T05:32:51.960Z,4.38
2023-04-17T05:35:39.671Z,4.43
2023-04-17T05:38:08.228Z,4.40
2023-04-17T05:40:36.132Z,7.15
2023-04-17T05:43:11.554Z,4.25
2023-04-17T05:45:41.560Z,3.88
2023-04-17T05:48:10.107Z,3.75
2023-04-17T05:50:37.678Z,8.05
2023-04-17T05:53:06.557Z,6.57
2023-04-17T05:55:43.779Z,4.47
2023-04-17T06:00:43.886Z,5.20
2023-04-17T06:03:18.153Z,6.00
2023-04-17T06:05:47.191Z,3.88
2023-04-17T06:08:14.893Z,4.93
2023-04-17T06:10:42.350Z,4.80
2023-04-17T06:13:10.355Z,4.45
2023-04-17T06:15:37.763Z,4.65
2023-04-17T06:18:05.409Z,8.02
2023-04-17T06:20:32.909Z,7.13
2023-04-17T06:23:02.886Z,10.48
2023-04-17T06:25:30.323Z,9.93
2023-04-17T06:27:57.760Z,12.57
2023-04-17T06:30:25.224Z,8.45
2023-04-17T06:32:55.154Z,6.38
2023-04-17T06:35:22.761Z,9.55
2023-04-17T06:38:10.438Z,5.68
2023-04-17T06:40:38.646Z,6.50
2023-04-17T06:43:07.411Z,5.15
2023-04-17T06:45:42.323Z,5.57
2023-04-17T06:48:09.862Z,6.97
2023-04-17T06:50:39.569Z,8.50
2023-04-17T06:53:07.259Z,4.55
2023-04-17T06:55:34.784Z,6.28
2023-04-17T06:58:02.174Z,4.68
2023-04-17T07:00:29.587Z,8.95
2023-04-17T07:02:57.214Z,6.90
2023-04-17T07:05:24.747Z,7.13
2023-04-17T07:07:52.141Z,13.68
2023-04-17T07:10:19.657Z,6.57
2023-04-17T07:12:47.206Z,10.90
2023-04-17T07:15:14.704Z,6.30
2023-04-17T07:17:42.239Z,4.88
2023-04-17T07:20:10.206Z,9.50
2023-04-17T07:22:37.608Z,6.03
2023-04-17T07:25:05.795Z,7.50
2023-04-17T07:27:33.206Z,5.45
2023-04-17T07:30:00.754Z,6.47
2023-04-17T07:32:28.525Z,9.77
2023-04-17T07:34:56.383Z,3.20
2023-04-17T07:37:23.748Z,10.45
2023-04-17T07:39:51.261Z,6.80
2023-04-17T07:42:18.643Z,6.93
2023-04-17T07:44:47.257Z,24.52
2023-04-17T07:47:14.773Z,16.80
2023-04-17T07:49:46.472Z,8.52
2023-04-17T07:52:15.421Z,19.63
2023-04-17T07:54:42.835Z,14.00
2023-04-17T07:57:11.124Z,15.75
2023-04-17T07:59:38.605Z,12.20
2023-04-17T08:02:09.280Z,16.42
2023-04-17T08:04:40.471Z,12.27
2023-04-17T08:07:10.687Z,6.70
2023-04-17T08:09:38.557Z,10.38
2023-04-17T08:12:06.623Z,6.50
2023-04-17T08:14:34.148Z,20.38
2023-04-17T08:17:02.067Z,11.23
2023-04-17T08:19:30.078Z,6.70
2023-04-17T08:22:05.057Z,19.15
2023-04-17T08:24:32.646Z,10.32
2023-04-17T08:27:00.118Z,6.10
2023-04-17T08:29:27.799Z,3.75
2023-04-17T08:32:10.879Z,8.98
2023-04-17T08:34:41.521Z,4.53
2023-04-17T08:37:08.972Z,5.75
2023-04-17T08:39:36.431Z,7.85
2023-04-17T08:42:08.432Z,6.10
2023-04-17T08:44:37.140Z,5.53
2023-04-17T08:47:09.022Z,7.25
2023-04-17T08:49:36.944Z,9.85
2023-04-17T08:52:05.532Z,4.80
2023-04-17T08:54:35.200Z,4.70
2023-04-17T08:57:05.960Z,2.95
2023-04-17T08:59:33.626Z,6.40
2023-04-17T09:02:10.495Z,4.72
2023-04-17T09:04:40.679Z,7.32
2023-04-17T09:07:12.717Z,6.57
2023-04-17T09:09:55.371Z,7.65
2023-04-17T09:12:27.002Z,6.03
2023-04-17T09:14:54.395Z,11.05
2023-04-17T09:17:21.913Z,6.50
2023-04-17T09:20:07.557Z,6.97
2023-04-17T09:22:36.647Z,3.75
2023-04-17T09:25:05.215Z,7.63
2023-04-17T09:27:32.691Z,4.10
2023-04-17T09:30:05.110Z,4.18
2023-04-17T09:32:33.592Z,4.10
2023-04-17T09:35:03.593Z,2.92
2023-04-17T09:37:52.779Z,7.70
2023-04-17T09:40:21.951Z,5.43
2023-04-17T09:42:57.070Z,4.38
2023-04-17T09:45:25.912Z,11.35
2023-04-17T09:47:55.952Z,5.78
2023-04-17T09:50:27.102Z,6.22
2023-04-17T09:52:58.892Z,7.43
2023-04-17T09:55:30.253Z,5.93
2023-04-17T09:57:59.470Z,13.47
2023-04-17T10:00:27.856Z,6.47
2023-04-17T10:02:57.686Z,5.95
2023-04-17T10:05:30.146Z,3.58
2023-04-17T10:10:26.372Z,5.15
2023-04-17T10:12:57.174Z,11.30
2023-04-17T10:15:25.672Z,6.78
2023-04-17T10:17:56.253Z,3.53
2023-04-17T10:20:23.764Z,5.95
2023-04-17T10:22:56.233Z,5.55
2023-04-17T10:25:24.971Z,5.00
2023-04-17T10:27:58.514Z,8.52
2023-04-17T10:30:54.837Z,5.20
2023-04-17T10:33:27.217Z,4.47
2023-04-17T10:35:55.266Z,5.18
2023-04-17T10:38:43.519Z,7.47
2023-04-17T10:41:12.255Z,3.13
2023-04-17T10:43:42.580Z,7.40
2023-04-17T10:46:12.802Z,4.55
2023-04-17T10:48:49.818Z,4.43
2023-04-17T10:51:29.232Z,4.03
2023-04-17T10:54:00.921Z,7.00
2023-04-17T10:56:42.777Z,9.52
2023-04-17T10:59:15.896Z,6.82
2023-04-17T11:01:50.119Z,3.05
2023-04-17T11:04:34.125Z,2.58
2023-04-17T11:07:01.930Z,4.18
2023-04-17T11:09:30.036Z,5.38
2023-04-17T11:12:03.651Z,7.82
2023-04-17T11:14:31.453Z,3.80
2023-04-17T11:16:59.039Z,4.90
2023-04-17T11:19:26.558Z,3.45
2023-04-17T11:22:01.436Z,4.32
2023-04-17T11:24:32.701Z,7.80
2023-04-17T11:27:02.105Z,1.73
2023-04-17T11:29:30.136Z,1.33
2023-04-17T11:31:58.215Z,5.18
2023-04-17T11:34:27.137Z,4.20
2023-04-17T11:36:59.696Z,3.50
2023-04-17T11:39:30.101Z,2.38
2023-04-17T11:41:58.018Z,5.05
2023-04-17T11:44:26.381Z,4.22
2023-04-17T11:46:58.853Z,2.70
2023-04-17T11:49:37.674Z,4.38
2023-04-17T11:52:05.749Z,2.50
2023-04-17T11:54:37.949Z,3.42
2023-04-17T11:59:35.169Z,4.05
2023-04-17T12:02:03.533Z,3.83
2023-04-17T12:04:35.003Z,6.75
2023-04-17T12:07:03.804Z,4.68
2023-04-17T12:09:32.356Z,6.80
2023-04-17T12:12:04.093Z,4.32
2023-04-17T12:14:32.375Z,18.13
2023-04-17T12:17:00.374Z,6.90
2023-04-17T12:19:29.386Z,3.53
2023-04-17T12:21:57.351Z,3.25
2023-04-17T12:24:25.362Z,5.85
2023-04-17T12:26:53.538Z,4.78
2023-04-17T12:29:29.476Z,6.10
2023-04-17T12:32:10.345Z,3.70
2023-04-17T12:34:38.027Z,2.60
2023-04-17T12:37:05.712Z,5.00
2023-04-17T12:39:33.355Z,3.25
2023-04-17T12:42:01.181Z,4.28
2023-04-17T12:44:28.679Z,5.10
2023-04-17T12:46:56.227Z,2.60
2023-04-17T12:49:23.824Z,5.45
2023-04-17T12:51:51.618Z,6.95
2023-04-17T12:54:19.343Z,4.45
2023-04-17T12:56:46.854Z,4.63
2023-04-17T12:59:14.303Z,7.15
2023-04-17T13:01:42.602Z,9.02
2023-04-17T13:04:10.117Z,6.35
2023-04-17T13:06:37.675Z,5.15
2023-04-17T13:09:06.162Z,4.35
2023-04-17T13:11:33.510Z,5.22
2023-04-17T13:14:00.897Z,4.90
2023-04-17T13:16:28.357Z,7.47
2023-04-17T13:18:56.043Z,6.45
2023-04-17T13:21:23.495Z,7.22
2023-04-17T13:23:50.906Z,3.50
2023-04-17T13:26:18.475Z,6.13
2023-04-17T13:28:45.872Z,4.65
2023-04-17T13:31:14.063Z,4.82
2023-04-17T13:33:41.655Z,5.55
2023-04-17T13:36:09.028Z,4.25
2023-04-17T13:38:36.491Z,4.57
2023-04-17T13:41:03.956Z,5.20
2023-04-17T13:43:31.336Z,5.88
2023-04-17T13:45:59.001Z,4.82
2023-04-17T13:48:26.501Z,4.85
2023-04-17T13:50:54.387Z,6.18
2023-04-17T13:53:21.800Z,6.95
2023-04-17T13:55:50.862Z,3.58
2023-04-17T13:58:18.437Z,3.40
2023-04-17T14:00:46.573Z,5.43
2023-04-17T14:03:14.168Z,4.47
2023-04-17T14:05:41.815Z,8.07
2023-04-17T14:08:09.594Z,5.43
2023-04-17T14:10:36.995Z,6.28
2023-04-17T14:13:04.414Z,5.65
2023-04-17T14:15:32.250Z,4.25
2023-04-17T14:17:59.910Z,6.82
2023-04-17T14:20:27.474Z,7.82
2023-04-17T14:22:54.839Z,5.45
2023-04-17T14:25:22.451Z,9.32
2023-04-17T14:27:50.257Z,6.70
2023-04-17T14:30:17.690Z,5.07
2023-04-17T14:32:45.192Z,3.90
2023-04-17T14:35:13.385Z,5.65
2023-04-17T14:37:41.976Z,4.18
2023-04-17T14:40:09.744Z,5.25
2023-04-17T14:42:50.910Z,7.60
2023-04-17T14:45:21.374Z,8.65
2023-04-17T14:47:48.888Z,5.10
2023-04-17T14:50:16.472Z,4.88
2023-04-17T14:52:43.830Z,6.30
2023-04-17T14:55:12.202Z,9.52
2023-04-17T14:57:39.832Z,5.45
2023-04-17T15:00:08.473Z,7.85
2023-04-17T15:02:38.945Z,7.05
2023-04-17T15:05:07.673Z,4.88
2023-04-17T15:07:35.773Z,14.55
2023-04-17T15:10:04.874Z,6.30
2023-04-17T15:12:32.338Z,5.80
2023-04-17T15:14:59.814Z,6.65
2023-04-17T15:17:27.184Z,8.85
2023-04-17T15:19:57.301Z,7.88
2023-04-17T15:22:27.053Z,6.47
2023-04-17T15:24:54.504Z,8.60
2023-04-17T15:27:21.923Z,6.72
2023-04-17T15:29:49.337Z,7.00
2023-04-17T15:32:16.816Z,5.75
2023-04-17T15:34:44.394Z,8.00
2023-04-17T15:37:12.248Z,6.25
2023-04-17T15:39:40.562Z,9.25
2023-04-17T15:42:09.465Z,11.02
2023-04-17T15:44:37.742Z,7.68
2023-04-17T15:47:09.778Z,9.88
2023-04-17T15:49:37.190Z,10.88
2023-04-17T15:52:05.492Z,4.88
2023-04-17T15:54:32.988Z,6.72
2023-04-17T15:57:00.570Z,6.38
2023-04-17T15:59:28.001Z,9.98
2023-04-17T16:01:56.113Z,6.10
2023-04-17T16:04:23.735Z,6.75
2023-04-17T16:06:51.447Z,6.03
2023-04-17T16:09:23.686Z,7.18
2023-04-17T16:14:18.467Z,5.03
2023-04-17T16:16:45.905Z,7.88
2023-04-17T16:19:13.686Z,3.90
2023-04-17T16:21:41.345Z,5.43
2023-04-17T16:24:08.733Z,5.38
2023-04-17T16:26:36.925Z,5.97
2023-04-17T16:29:04.391Z,5.30
2023-04-17T16:31:31.805Z,4.43
2023-04-17T16:33:59.349Z,4.75
2023-04-17T16:36:27.804Z,5.05
2023-04-17T16:38:55.259Z,9.43
2023-04-17T16:41:23.523Z,8.93
2023-04-17T16:43:50.887Z,7.07
2023-04-17T16:46:24.050Z,6.70
2023-04-17T16:48:59.211Z,6.07
2023-04-17T16:51:27.798Z,7.45
2023-04-17T16:53:55.285Z,6.05
2023-04-17T16:56:22.936Z,4.65
2023-04-17T16:58:50.485Z,4.40
2023-04-17T17:01:18.076Z,6.38
2023-04-17T17:03:46.587Z,5.47
2023-04-17T17:06:14.199Z,6.75
2023-04-17T17:08:46.684Z,9.05
2023-04-17T17:11:18.646Z,8.65
2023-04-17T17:13:49.362Z,7.72
2023-04-17T17:16:17.990Z,6.28
2023-04-17T17:18:45.888Z,5.95
2023-04-17T17:21:14.076Z,5.75
2023-04-17T17:23:41.684Z,9.35
2023-04-17T17:26:09.082Z,5.35
2023-04-17T17:28:38.380Z,11.60
2023-04-17T17:31:09.981Z,8.38
2023-04-17T17:33:37.338Z,10.57
2023-04-17T17:36:04.977Z,8.38
2023-04-17T17:38:32.795Z,8.98
2023-04-17T17:41:00.473Z,8.18
2023-04-17T17:43:30.797Z,7.70
2023-04-17T17:45:58.900Z,7.07
2023-04-17T17:48:26.385Z,9.35
2023-04-17T17:50:54.674Z,7.32
2023-04-17T17:53:26.357Z,6.72
2023-04-17T17:58:22.825Z,6.78
2023-04-17T18:00:51.168Z,8.90
2023-04-17T18:03:19.201Z,10.07
2023-04-17T18:05:47.335Z,10.70
2023-04-17T18:08:14.936Z,6.82
2023-04-17T18:10:42.292Z,8.77
2023-04-17T18:13:09.605Z,9.90
2023-04-17T18:15:37.053Z,8.50
2023-04-17T18:18:04.515Z,7.40
2023-04-17T18:20:31.973Z,10.15
2023-04-17T18:22:59.419Z,9.63
2023-04-17T18:25:26.816Z,7.47
2023-04-17T18:27:54.324Z,13.95
2023-04-17T18:30:21.779Z,8.45
2023-04-17T18:32:49.250Z,12.15
2023-04-17T18:35:16.806Z,8.93
2023-04-17T18:37:45.225Z,8.73
2023-04-17T18:40:13.026Z,11.20
2023-04-17T18:42:40.565Z,10.50
2023-04-17T18:45:08.501Z,10.57
2023-04-17T18:47:36.334Z,11.30
2023-04-17T18:50:04.842Z,8.98
2023-04-17T18:52:36.885Z,12.68
2023-04-17T18:55:04.613Z,12.80
2023-04-17T18:57:32.056Z,13.38
2023-04-17T18:59:59.439Z,14.20
2023-04-17T19:02:26.912Z,19.70
2023-04-17T19:04:56.252Z,18.52
2023-04-17T19:07:24.053Z,15.70
2023-04-17T19:09:51.356Z,17.67
2023-04-17T19:12:18.750Z,14.65
2023-04-17T19:14:46.177Z,15.18
2023-04-17T19:17:13.684Z,14.90
2023-04-17T19:19:41.085Z,18.33
2023-04-17T19:22:08.579Z,14.63
2023-04-17T19:24:36.013Z,15.02
2023-04-17T19:27:03.493Z,15.52
2023-04-17T19:29:30.925Z,11.20
2023-04-17T19:31:58.393Z,12.07
2023-04-17T19:34:25.906Z,13.82
2023-04-17T19:36:53.322Z,12.00
2023-04-17T19:39:20.710Z,14.98
2023-04-17T19:41:50.916Z,13.50
2023-04-17T19:44:18.860Z,14.98
2023-04-17T19:46:46.279Z,14.70
2023-04-17T19:49:13.981Z,13.70
2023-04-17T19:51:41.739Z,15.50
2023-04-17T19:54:11.901Z,16.58
2023-04-17T19:56:39.483Z,14.27
2023-04-17T19:59:07.021Z,15.05
2023-04-17T20:01:35.466Z,15.40
2023-04-17T20:04:02.941Z,15.07
2023-04-17T20:06:30.648Z,14.35
2023-04-17T20:08:59.176Z,14.15
2023-04-17T20:11:26.667Z,16.38
2023-04-17T20:13:54.311Z,14.90
2023-04-17T20:16:21.798Z,15.43
2023-04-17T20:18:51.625Z,18.50
2023-04-17T20:21:19.139Z,17.08
2023-04-17T20:23:47.675Z,14.27
2023-04-17T20:26:15.605Z,17.42
2023-04-17T20:28:43.028Z,17.13
2023-04-17T20:31:10.674Z,15.63
2023-04-17T20:33:38.212Z,15.38
2023-04-17T20:36:06.056Z,14.82
2023-04-17T20:38:33.560Z,18.38
2023-04-17T20:41:00.912Z,20.42
2023-04-17T20:43:28.302Z,15.32
2023-04-17T20:45:55.909Z,16.25
2023-04-17T20:48:25.130Z,18.38
2023-04-17T20:50:52.583Z,13.30
2023-04-17T20:53:19.982Z,13.32
2023-04-17T20:55:47.537Z,16.27
2023-04-17T20:58:14.977Z,17.48
2023-04-17T21:00:54.280Z,16.67
2023-04-17T21:03:26.040Z,15.77
2023-04-17T21:05:53.948Z,16.77
2023-04-17T21:08:21.394Z,17.13
2023-04-17T21:10:48.818Z,15.52
2023-04-17T21:13:16.273Z,17.45
2023-04-17T21:15:43.752Z,19.05
2023-04-17T21:18:11.269Z,17.20
2023-04-17T21:20:39.393Z,15.50
2023-04-17T21:23:06.817Z,14.73
2023-04-17T21:25:34.225Z,18.55
2023-04-17T21:28:01.619Z,14.82
2023-04-17T21:30:29.096Z,16.75
2023-04-17T21:32:56.546Z,16.90
2023-04-17T21:35:24.137Z,15.35
2023-04-17T21:37:51.525Z,17.13
2023-04-17T21:40:18.979Z,17.15
2023-04-17T21:42:46.320Z,16.60
2023-04-17T21:45:15.010Z,19.17
2023-04-17T21:47:42.446Z,14.43
2023-04-17T21:50:10.415Z,16.05
2023-04-17T21:52:38.167Z,17.80
2023-04-17T21:55:07.856Z,16.88
2023-04-17T21:57:35.450Z,17.27
2023-04-17T22:00:05.279Z,16.42
2023-04-17T22:02:34.190Z,14.55
2023-04-17T22:05:01.636Z,15.25
2023-04-17T22:07:29.066Z,24.42
2023-04-17T22:09:56.480Z,14.65
2023-04-17T22:12:24.021Z,15.98
2023-04-17T22:14:51.437Z,14.45
2023-04-17T22:17:18.806Z,14.45
2023-04-17T22:19:46.180Z,20.60
2023-04-17T22:22:13.525Z,15.75
2023-04-17T22:24:41.566Z,18.85
2023-04-17T22:27:08.953Z,20.83
2023-04-17T22:29:36.318Z,20.45
2023-04-17T22:32:03.860Z,20.95
2023-04-17T22:34:31.254Z,19.80
2023-04-17T22:36:58.662Z,19.75
2023-04-17T22:39:26.006Z,19.75
2023-04-17T22:41:53.390Z,19.08
2023-04-17T22:44:20.936Z,22.33
2023-04-17T22:46:48.277Z,20.98
2023-04-17T22:49:15.731Z,17.15
2023-04-17T22:51:43.316Z,16.00
2023-04-17T22:54:21.582Z,18.13
2023-04-17T22:56:49.912Z,18.92
2023-04-17T22:59:17.370Z,17.95
2023-04-17T23:01:44.808Z,18.23
2023-04-17T23:04:12.532Z,20.48
2023-04-17T23:06:40.396Z,17.20
2023-04-17T23:09:07.835Z,19.52
2023-04-17T23:11:35.317Z,19.08
2023-04-17T23:14:03.156Z,15.82
2023-04-17T23:16:30.903Z,18.25
2023-04-17T23:18:58.387Z,15.65
2023-04-17T23:21:26.203Z,17.33
2023-04-17T23:23:53.674Z,20.05
2023-04-17T23:26:21.339Z,14.98
2023-04-17T23:28:48.754Z,16.90
2023-04-17T23:31:16.190Z,16.15
2023-04-17T23:33:43.631Z,16.98
2023-04-17T23:36:11.400Z,14.60
2023-04-17T23:38:39.558Z,17.95
2023-04-17T23:41:06.938Z,15.82
2023-04-17T23:43:34.336Z,15.75
2023-04-17T23:46:01.778Z,14.63
2023-04-17T23:48:29.189Z,19.77
2023-04-17T23:50:56.660Z,16.17
2023-04-17T23:53:23.994Z,14.38
2023-04-17T23:55:51.868Z,17.83
2023-04-17T23:58:19.375Z,15.75
